createdAt,value
2019-02-06T00:01:10.718Z,24.50
2019-02-06T00:03:41.325Z,25.03
2019-02-06T00:06:11.986Z,24.20
2019-02-06T00:08:43.718Z,25.37
2019-02-06T00:11:14.681Z,26.63
2019-02-06T00:13:45.378Z,26.37
2019-02-06T00:16:16.158Z,27.33
2019-02-06T00:18:46.715Z,29.63
2019-02-06T00:21:20.525Z,30.37
2019-02-06T00:23:49.818Z,29.30
2019-02-06T00:26:20.443Z,27.83
2019-02-06T00:28:51.026Z,26.67
2019-02-06T00:31:21.655Z,25.73
2019-02-06T00:33:52.213Z,24.13
2019-02-06T00:36:22.681Z,26.03
2019-02-06T00:38:53.496Z,25.23
2019-02-06T00:41:24.096Z,25.23
2019-02-06T00:43:55.190Z,25.67
2019-02-06T00:46:25.901Z,26.43
2019-02-06T00:48:56.452Z,24.97
2019-02-06T00:51:26.951Z,25.93
2019-02-06T00:53:57.410Z,26.90
2019-02-06T00:56:28.044Z,26.23
2019-02-06T00:58:58.658Z,26.77
2019-02-06T01:01:29.256Z,27.53
2019-02-06T01:03:59.864Z,28.37
2019-02-06T01:06:31.020Z,28.67
2019-02-06T01:09:01.598Z,28.93
2019-02-06T01:11:32.457Z,30.07
2019-02-06T01:14:02.909Z,28.00
2019-02-06T01:16:33.572Z,29.73
2019-02-06T01:19:04.321Z,31.07
2019-02-06T01:21:34.876Z,29.33
2019-02-06T01:24:06.015Z,28.20
2019-02-06T01:26:36.604Z,25.10
2019-02-06T01:29:07.140Z,24.93
2019-02-06T01:31:37.763Z,25.83
2019-02-06T01:34:08.643Z,26.37
2019-02-06T01:36:39.481Z,25.20
2019-02-06T01:39:13.127Z,24.43
2019-02-06T01:41:43.701Z,24.83
2019-02-06T01:44:14.282Z,26.80
2019-02-06T01:46:44.838Z,26.63
2019-02-06T01:49:15.457Z,27.57
2019-02-06T01:51:46.079Z,27.30
2019-02-06T01:54:16.696Z,27.97
2019-02-06T01:56:47.181Z,29.27
2019-02-06T01:59:17.767Z,26.63
2019-02-06T02:01:48.602Z,27.80
2019-02-06T02:04:19.471Z,26.53
2019-02-06T02:06:50.209Z,26.77
2019-02-06T02:09:21.171Z,27.67
2019-02-06T02:11:51.825Z,26.73
2019-02-06T02:14:22.246Z,25.83
2019-02-06T02:16:52.855Z,25.50
2019-02-06T02:19:23.980Z,27.00
2019-02-06T02:21:54.499Z,26.13
2019-02-06T02:24:25.016Z,26.03
2019-02-06T02:26:55.689Z,23.87
2019-02-06T02:29:26.565Z,26.07
2019-02-06T02:31:57.325Z,24.97
2019-02-06T02:34:28.011Z,25.17
2019-02-06T02:36:58.775Z,26.07
2019-02-06T02:39:29.313Z,26.47
2019-02-06T02:42:00.249Z,27.03
2019-02-06T02:44:30.838Z,27.03
2019-02-06T02:47:01.389Z,27.57
2019-02-06T02:49:31.835Z,26.07
2019-02-06T02:52:02.555Z,27.10
2019-02-06T02:54:33.105Z,25.23
2019-02-06T02:57:03.880Z,27.33
2019-02-06T02:59:34.420Z,26.90
2019-02-06T03:02:24.016Z,26.90
2019-02-06T03:05:01.138Z,25.30
2019-02-06T03:07:31.670Z,25.67
2019-02-06T03:10:02.309Z,27.13
2019-02-06T03:12:32.793Z,26.33
2019-02-06T03:15:03.521Z,27.53
2019-02-06T03:17:34.021Z,27.03
2019-02-06T03:20:05.655Z,28.47
2019-02-06T03:22:36.773Z,27.43
2019-02-06T03:25:09.126Z,27.13
2019-02-06T03:27:39.764Z,27.43
2019-02-06T03:30:13.771Z,27.83
2019-02-06T03:32:44.421Z,26.37
2019-02-06T03:35:15.383Z,27.60
2019-02-06T03:37:46.088Z,27.27
2019-02-06T03:40:17.118Z,27.10
2019-02-06T03:42:47.704Z,26.23
2019-02-06T03:45:18.641Z,26.93
2019-02-06T03:47:49.329Z,27.30
2019-02-06T03:50:20.947Z,28.93
2019-02-06T03:52:51.647Z,27.77
2019-02-06T03:55:22.353Z,28.60
2019-02-06T03:57:52.927Z,29.70
2019-02-06T04:00:23.659Z,28.17
2019-02-06T04:02:54.151Z,30.37
2019-02-06T04:05:24.959Z,29.33
2019-02-06T04:07:55.601Z,29.93
2019-02-06T04:10:26.162Z,27.50
2019-02-06T04:12:57.117Z,27.20
2019-02-06T04:15:27.815Z,27.13
2019-02-06T04:17:58.358Z,28.23
2019-02-06T04:20:28.862Z,28.67
2019-02-06T04:22:59.402Z,30.63
2019-02-06T04:25:29.936Z,29.00
2019-02-06T04:28:00.506Z,28.63
2019-02-06T04:30:31.100Z,29.60
2019-02-06T04:33:01.672Z,30.13
2019-02-06T04:35:32.170Z,28.40
2019-02-06T04:38:02.738Z,28.33
2019-02-06T04:40:33.537Z,27.73
2019-02-06T04:43:04.074Z,28.53
2019-02-06T04:45:34.805Z,27.77
2019-02-06T04:48:05.606Z,30.57
2019-02-06T04:50:36.385Z,32.73
2019-02-06T04:53:07.031Z,33.90
2019-02-06T04:55:37.569Z,30.13
2019-02-06T04:58:08.181Z,28.70
2019-02-06T05:00:38.798Z,24.93
2019-02-06T05:03:09.527Z,25.07
2019-02-06T05:05:40.092Z,25.53
2019-02-06T05:08:10.939Z,25.83
2019-02-06T05:10:41.563Z,26.80
2019-02-06T05:13:12.121Z,25.13
2019-02-06T05:15:42.712Z,25.97
2019-02-06T05:18:13.277Z,25.13
2019-02-06T05:20:43.914Z,24.87
2019-02-06T05:23:14.589Z,24.97
2019-02-06T05:25:45.143Z,25.00
2019-02-06T05:28:17.987Z,25.03
2019-02-06T05:30:47.920Z,25.23
2019-02-06T05:33:18.511Z,25.17
2019-02-06T05:35:49.494Z,24.30
2019-02-06T05:38:20.030Z,25.77
2019-02-06T05:40:50.566Z,25.50
2019-02-06T05:43:21.110Z,26.23
2019-02-06T05:45:51.553Z,25.60
2019-02-06T05:48:22.128Z,25.23
2019-02-06T05:50:53.645Z,26.17
2019-02-06T05:53:23.979Z,26.03
2019-02-06T05:55:55.047Z,24.43
2019-02-06T05:58:25.742Z,30.10
2019-02-06T06:00:56.428Z,34.80
2019-02-06T06:03:27.291Z,32.23
2019-02-06T06:05:57.971Z,30.30
2019-02-06T06:08:28.591Z,28.50
2019-02-06T06:10:59.075Z,27.70
2019-02-06T06:13:29.719Z,28.03
2019-02-06T06:16:00.355Z,34.10
2019-02-06T06:18:32.046Z,30.37
2019-02-06T06:21:02.683Z,29.00
2019-02-06T06:23:33.460Z,30.67
2019-02-06T06:26:04.144Z,28.77
2019-02-06T06:28:34.731Z,31.80
2019-02-06T06:31:05.459Z,35.07
2019-02-06T06:33:36.412Z,34.77
2019-02-06T06:36:07.573Z,33.37
2019-02-06T06:38:38.107Z,31.80
2019-02-06T06:41:08.701Z,30.77
2019-02-06T06:43:39.220Z,31.80
2019-02-06T06:46:09.659Z,32.33
2019-02-06T06:48:40.139Z,31.17
2019-02-06T06:51:10.607Z,33.13
2019-02-06T06:53:41.209Z,35.03
2019-02-06T06:56:12.063Z,30.93
2019-02-06T06:58:42.910Z,30.20
2019-02-06T07:01:13.815Z,28.50
2019-02-06T07:03:44.798Z,27.77
2019-02-06T07:06:15.486Z,29.37
2019-02-06T07:08:46.018Z,30.33
2019-02-06T07:11:16.627Z,32.97
2019-02-06T07:13:47.230Z,29.50
2019-02-06T07:16:17.984Z,28.07
2019-02-06T07:18:48.403Z,32.27
2019-02-06T07:21:19.084Z,30.23
2019-02-06T07:23:49.546Z,38.60
2019-02-06T07:26:20.111Z,32.23
2019-02-06T07:28:50.802Z,37.35
2019-02-06T07:31:21.434Z,29.80
2019-02-06T07:33:52.301Z,29.50
2019-02-06T07:36:22.887Z,33.55
2019-02-06T07:38:53.466Z,30.17
2019-02-06T07:41:23.985Z,27.83
2019-02-06T07:43:54.926Z,25.20
2019-02-06T07:46:25.394Z,26.63
2019-02-06T07:48:55.784Z,26.87
2019-02-06T07:51:26.388Z,25.07
2019-02-06T07:53:56.862Z,24.53
2019-02-06T07:56:27.546Z,26.23
2019-02-06T07:58:58.180Z,25.67
2019-02-06T08:01:28.772Z,26.27
2019-02-06T08:03:59.214Z,33.38
2019-02-06T08:06:29.917Z,28.63
2019-02-06T08:09:00.587Z,28.67
2019-02-06T08:11:31.212Z,27.10
2019-02-06T08:14:01.811Z,26.47
2019-02-06T08:16:32.289Z,28.37
2019-02-06T08:19:03.509Z,28.27
2019-02-06T08:21:34.076Z,26.57
2019-02-06T08:24:05.380Z,27.30
2019-02-06T08:26:35.941Z,26.90
2019-02-06T08:29:06.621Z,27.17
2019-02-06T08:31:37.264Z,27.80
2019-02-06T08:34:07.735Z,26.17
2019-02-06T08:36:38.380Z,26.03
2019-02-06T08:39:10.508Z,26.00
2019-02-06T08:41:40.917Z,25.90
2019-02-06T08:44:11.431Z,25.47
2019-02-06T08:46:42.153Z,25.00
2019-02-06T08:49:12.800Z,26.93
2019-02-06T08:51:43.546Z,26.53
2019-02-06T08:54:14.105Z,26.43
2019-02-06T08:56:44.824Z,25.13
2019-02-06T08:59:15.502Z,26.17
2019-02-06T09:01:46.052Z,27.00
2019-02-06T09:04:16.588Z,25.67
2019-02-06T09:06:47.766Z,26.70
2019-02-06T09:09:18.382Z,25.67
2019-02-06T09:11:48.959Z,25.60
2019-02-06T09:14:19.892Z,23.70
2019-02-06T09:16:50.493Z,25.47
2019-02-06T09:19:21.193Z,24.70
2019-02-06T09:21:51.848Z,25.47
2019-02-06T09:24:22.317Z,20.70
2019-02-06T09:26:52.960Z,11.50
2019-02-06T09:29:23.609Z,29.73
2019-02-06T09:31:54.565Z,23.07
2019-02-06T09:34:25.224Z,19.23
2019-02-06T09:36:55.904Z,16.80
2019-02-06T09:39:26.357Z,17.93
2019-02-06T09:41:56.999Z,21.13
2019-02-06T09:44:27.678Z,18.93
2019-02-06T09:46:58.498Z,14.63
2019-02-06T09:49:29.061Z,16.97
2019-02-06T09:51:59.892Z,13.20
2019-02-06T09:54:30.412Z,13.23
2019-02-06T09:57:01.086Z,12.90
2019-02-06T09:59:31.679Z,13.23
2019-02-06T10:02:02.314Z,11.63
2019-02-06T10:04:32.971Z,9.37
2019-02-06T10:07:03.472Z,10.00
2019-02-06T10:09:33.930Z,10.00
2019-02-06T10:12:04.426Z,11.00
2019-02-06T10:14:35.230Z,10.83
2019-02-06T10:17:05.821Z,9.93
2019-02-06T10:19:36.340Z,10.10
2019-02-06T10:22:07.003Z,11.23
2019-02-06T10:24:37.978Z,10.27
2019-02-06T10:27:08.623Z,8.53
2019-02-06T10:29:39.221Z,8.20
2019-02-06T10:32:09.984Z,8.23
2019-02-06T10:34:40.564Z,10.13
2019-02-06T10:37:11.211Z,8.50
2019-02-06T10:39:41.636Z,8.70
2019-02-06T10:42:12.406Z,9.53
2019-02-06T10:44:43.146Z,9.47
2019-02-06T10:47:13.757Z,9.80
2019-02-06T10:49:44.352Z,10.07
2019-02-06T10:52:14.817Z,10.10
2019-02-06T10:54:45.403Z,8.93
2019-02-06T10:57:16.076Z,9.83
2019-02-06T10:59:46.536Z,12.87
2019-02-06T11:02:17.160Z,16.43
2019-02-06T11:04:48.607Z,10.43
2019-02-06T11:07:19.085Z,13.03
2019-02-06T11:09:49.947Z,12.73
2019-02-06T11:12:20.485Z,21.77
2019-02-06T11:14:51.366Z,10.60
2019-02-06T11:17:21.855Z,7.80
2019-02-06T11:19:52.694Z,11.03
2019-02-06T11:22:23.190Z,15.20
2019-02-06T11:24:53.829Z,12.70
2019-02-06T11:27:24.470Z,10.77
2019-02-06T11:29:55.165Z,10.37
2019-02-06T11:32:25.690Z,9.30
2019-02-06T11:34:56.217Z,8.60
2019-02-06T11:37:27.087Z,10.00
2019-02-06T11:39:58.477Z,8.50
2019-02-06T11:42:29.053Z,8.50
2019-02-06T11:44:59.633Z,9.27
2019-02-06T11:47:30.218Z,10.47
2019-02-06T11:50:02.217Z,8.40
2019-02-06T11:52:32.748Z,9.13
2019-02-06T11:55:03.293Z,8.73
2019-02-06T11:57:33.910Z,7.87
2019-02-06T12:00:04.903Z,8.27
2019-02-06T12:02:37.282Z,8.73
2019-02-06T12:05:08.784Z,8.10
2019-02-06T12:07:39.342Z,8.90
2019-02-06T12:10:14.440Z,9.23
2019-02-06T12:12:44.984Z,8.53
2019-02-06T12:15:18.297Z,8.67
2019-02-06T12:17:48.929Z,8.20
2019-02-06T12:20:21.316Z,12.83
2019-02-06T12:22:52.006Z,8.57
2019-02-06T12:25:22.615Z,8.77
2019-02-06T12:27:53.359Z,7.90
2019-02-06T12:30:28.513Z,7.93
2019-02-06T12:32:59.104Z,9.30
2019-02-06T12:35:29.705Z,8.27
2019-02-06T12:38:00.321Z,9.27
2019-02-06T12:40:30.968Z,8.77
2019-02-06T12:43:01.531Z,10.40
2019-02-06T12:45:32.209Z,9.70
2019-02-06T12:48:02.846Z,9.57
2019-02-06T12:50:33.429Z,10.53
2019-02-06T12:53:03.983Z,9.93
2019-02-06T12:55:36.637Z,9.53
2019-02-06T12:58:08.836Z,10.50
2019-02-06T13:00:41.646Z,8.67
2019-02-06T13:03:12.395Z,10.23
2019-02-06T13:05:43.829Z,10.67
2019-02-06T13:08:17.219Z,11.17
2019-02-06T13:10:46.793Z,13.00
2019-02-06T13:13:17.676Z,12.80
2019-02-06T13:15:48.402Z,14.13
2019-02-06T13:18:18.850Z,13.90
2019-02-06T13:20:51.423Z,13.30
2019-02-06T13:23:22.380Z,13.47
2019-02-06T13:25:53.089Z,12.70
2019-02-06T13:28:23.675Z,12.37
2019-02-06T13:30:54.177Z,11.60
2019-02-06T13:33:24.602Z,12.43
2019-02-06T13:35:55.232Z,12.20
2019-02-06T13:38:25.926Z,11.37
2019-02-06T13:40:56.864Z,11.10
2019-02-06T13:43:27.448Z,12.43
2019-02-06T13:46:04.514Z,12.17
2019-02-06T13:48:35.057Z,10.10
2019-02-06T13:51:16.535Z,12.53
2019-02-06T13:53:42.452Z,11.33
2019-02-06T13:56:13.296Z,12.03
2019-02-06T13:58:43.866Z,11.33
2019-02-06T14:01:25.442Z,10.10
2019-02-06T14:03:47.093Z,10.07
2019-02-06T14:06:17.787Z,11.30
2019-02-06T14:08:48.351Z,11.40
2019-02-06T14:11:19.469Z,11.90
2019-02-06T14:13:53.623Z,10.73
2019-02-06T14:16:26.998Z,11.70
2019-02-06T14:18:56.447Z,10.60
2019-02-06T14:21:27.374Z,12.63
2019-02-06T14:24:23.101Z,12.63
2019-02-06T14:27:11.734Z,11.37
2019-02-06T14:30:40.118Z,12.60
2019-02-06T14:33:57.935Z,12.77
2019-02-06T14:37:14.711Z,12.90
2019-02-06T14:40:10.006Z,11.67
2019-02-06T14:43:40.676Z,11.60
2019-02-06T14:46:50.983Z,12.90
2019-02-06T14:50:02.424Z,9.60
2019-02-06T14:53:23.878Z,11.93
2019-02-06T14:56:20.787Z,10.37
2019-02-06T14:59:49.204Z,12.27
2019-02-06T15:03:08.310Z,11.80
2019-02-06T15:06:34.915Z,11.87
2019-02-06T15:09:51.808Z,12.00
2019-02-06T15:13:19.205Z,13.33
2019-02-06T15:16:27.016Z,14.57
2019-02-06T15:19:36.566Z,14.23
2019-02-06T15:22:50.429Z,12.50
2019-02-06T15:25:50.351Z,13.70
2019-02-06T15:29:10.860Z,15.30
2019-02-06T15:32:25.198Z,13.40
2019-02-06T15:35:45.060Z,15.27
2019-02-06T15:39:12.948Z,15.17
2019-02-06T15:42:43.367Z,13.30
2019-02-06T15:45:48.559Z,13.37
2019-02-06T15:48:52.191Z,14.50
2019-02-06T15:52:05.131Z,13.17
2019-02-06T15:55:08.933Z,13.83
2019-02-06T15:58:20.914Z,14.53
2019-02-06T16:01:25.205Z,14.10
2019-02-06T16:04:45.825Z,14.97
2019-02-06T16:08:02.609Z,14.13
2019-02-06T16:11:41.666Z,15.00
2019-02-06T16:14:39.911Z,14.90
2019-02-06T16:18:00.663Z,17.63
2019-02-06T16:21:12.736Z,16.70
2019-02-06T16:24:32.552Z,16.47
2019-02-06T16:27:54.599Z,18.53
2019-02-06T16:31:04.627Z,16.40
2019-02-06T16:34:32.081Z,16.37
2019-02-06T16:38:00.128Z,16.87
2019-02-06T16:40:58.698Z,19.83
2019-02-06T16:44:31.168Z,19.53
2019-02-06T16:47:45.276Z,18.50
2019-02-06T16:50:30.272Z,20.03
2019-02-06T16:53:58.262Z,20.57
2019-02-06T16:57:26.277Z,19.50
2019-02-06T17:00:54.225Z,19.90
2019-02-06T17:03:56.280Z,19.47
2019-02-06T17:06:58.811Z,17.70
2019-02-06T17:10:28.069Z,20.30
2019-02-06T17:13:56.056Z,20.93
2019-02-06T17:17:15.647Z,21.10
2019-02-06T17:20:43.594Z,22.00
2019-02-06T17:24:02.617Z,27.03
2019-02-06T17:27:22.308Z,25.27
2019-02-06T17:30:40.885Z,27.03
2019-02-06T17:34:11.109Z,32.07
2019-02-06T17:37:14.302Z,30.83
2019-02-06T17:40:34.466Z,30.30
2019-02-06T17:43:40.561Z,34.67
2019-02-06T17:46:53.995Z,26.27
2019-02-06T17:50:18.640Z,24.03
2019-02-06T17:53:32.630Z,23.63
2019-02-06T17:56:06.770Z,26.87
2019-02-06T17:58:42.366Z,25.83
2019-02-06T18:01:52.429Z,23.40
2019-02-06T18:04:31.777Z,23.40
2019-02-06T18:07:06.781Z,30.27
2019-02-06T18:09:41.404Z,27.93
2019-02-06T18:12:13.687Z,30.93
2019-02-06T18:14:45.501Z,33.60
2019-02-06T18:17:25.969Z,32.37
2019-02-06T18:20:07.541Z,32.33
2019-02-06T18:22:42.902Z,33.00
2019-02-06T18:25:14.130Z,35.83
2019-02-06T18:27:48.421Z,36.43
2019-02-06T18:30:25.441Z,37.37
2019-02-06T18:33:01.641Z,35.60
2019-02-06T18:35:32.797Z,36.10
2019-02-06T18:38:07.615Z,37.30
2019-02-06T18:40:40.640Z,38.70
2019-02-06T18:43:14.600Z,37.70
2019-02-06T18:45:51.351Z,36.27
2019-02-06T18:48:26.674Z,38.47
2019-02-06T18:51:01.538Z,35.73
2019-02-06T18:53:33.391Z,36.23
2019-02-06T18:56:12.205Z,36.83
2019-02-06T18:58:44.078Z,38.10
2019-02-06T19:01:17.811Z,35.83
2019-02-06T19:03:52.376Z,36.87
2019-02-06T19:06:27.075Z,34.00
2019-02-06T19:08:59.391Z,36.43
2019-02-06T19:11:33.263Z,37.40
2019-02-06T19:14:06.617Z,36.20
2019-02-06T19:16:40.762Z,35.50
2019-02-06T19:19:12.768Z,37.00
2019-02-06T19:21:43.500Z,36.10
2019-02-06T19:24:18.776Z,34.93
2019-02-06T19:26:55.597Z,38.10
2019-02-06T19:29:29.062Z,36.13
2019-02-06T19:32:02.605Z,38.10
2019-02-06T19:34:33.247Z,36.37
2019-02-06T19:37:04.860Z,38.00
2019-02-06T19:39:39.595Z,38.87
2019-02-06T19:42:22.012Z,37.97
2019-02-06T19:44:54.021Z,35.40
2019-02-06T19:47:30.805Z,38.10
2019-02-06T19:50:01.627Z,37.63
2019-02-06T19:52:35.881Z,37.57
2019-02-06T19:55:08.426Z,37.90
2019-02-06T19:57:40.381Z,38.90
2019-02-06T20:00:21.547Z,38.93
2019-02-06T20:02:54.109Z,38.57
2019-02-06T20:05:26.071Z,36.00
2019-02-06T20:08:06.928Z,37.03
2019-02-06T20:10:45.097Z,35.00
2019-02-06T20:13:19.488Z,37.90
2019-02-06T20:15:53.827Z,36.97
2019-02-06T20:18:24.374Z,38.30
2019-02-06T20:20:57.496Z,37.80
2019-02-06T20:23:31.241Z,37.27
2019-02-06T20:26:08.606Z,39.23
2019-02-06T20:28:45.226Z,39.97
2019-02-06T20:31:19.068Z,41.07
2019-02-06T20:33:56.640Z,39.67
2019-02-06T20:36:36.254Z,38.07
2019-02-06T20:39:16.187Z,40.53
2019-02-06T20:41:46.882Z,39.87
2019-02-06T20:44:17.623Z,40.07
2019-02-06T20:46:58.118Z,39.90
2019-02-06T20:49:37.708Z,39.03
2019-02-06T20:52:11.524Z,37.70
2019-02-06T20:54:46.998Z,37.90
2019-02-06T20:57:17.960Z,37.30
2019-02-06T20:59:48.626Z,37.83
2019-02-06T21:02:23.369Z,39.83
2019-02-06T21:04:55.199Z,41.63
2019-02-06T21:07:30.733Z,40.63
2019-02-06T21:10:04.078Z,39.50
2019-02-06T21:12:38.129Z,38.57
2019-02-06T21:15:09.460Z,37.90
2019-02-06T21:17:42.404Z,38.30
2019-02-06T21:20:17.353Z,40.30
2019-02-06T21:23:04.643Z,39.40
2019-02-06T21:25:35.473Z,39.60
2019-02-06T21:28:13.870Z,37.53
2019-02-06T21:30:48.903Z,38.33
2019-02-06T21:33:24.689Z,40.30
2019-02-06T21:35:59.126Z,41.20
2019-02-06T21:38:33.935Z,41.57
2019-02-06T21:41:05.936Z,39.40
2019-02-06T21:43:44.179Z,38.20
2019-02-06T21:46:14.062Z,40.37
2019-02-06T21:48:46.863Z,39.43
2019-02-06T21:51:21.092Z,41.10
2019-02-06T21:53:52.253Z,41.27
2019-02-06T21:56:23.152Z,42.00
2019-02-06T21:58:53.888Z,42.90
2019-02-06T22:01:24.471Z,40.97
2019-02-06T22:03:54.976Z,42.37
2019-02-06T22:06:25.599Z,42.70
2019-02-06T22:08:56.318Z,44.30
2019-02-06T22:11:27.115Z,43.87
2019-02-06T22:13:57.574Z,42.73
2019-02-06T22:16:28.184Z,44.80
2019-02-06T22:18:58.783Z,42.17
2019-02-06T22:21:29.296Z,41.27
2019-02-06T22:24:00.074Z,42.03
2019-02-06T22:26:30.767Z,41.70
2019-02-06T22:29:01.344Z,40.30
2019-02-06T22:31:31.873Z,43.73
2019-02-06T22:34:02.484Z,44.33
2019-02-06T22:36:33.603Z,41.73
2019-02-06T22:39:06.258Z,44.13
2019-02-06T22:41:36.903Z,43.80
2019-02-06T22:44:07.413Z,45.30
2019-02-06T22:46:38.010Z,42.43
2019-02-06T22:49:08.629Z,44.07
2019-02-06T22:51:39.273Z,45.87
2019-02-06T22:54:09.996Z,43.53
2019-02-06T22:56:41.229Z,42.17
2019-02-06T22:59:12.151Z,43.97
2019-02-06T23:01:51.548Z,43.77
2019-02-06T23:04:22.073Z,42.67
2019-02-06T23:06:52.916Z,44.27
2019-02-06T23:09:23.630Z,44.47
2019-02-06T23:11:55.808Z,44.13
2019-02-06T23:14:26.941Z,45.90
2019-02-06T23:16:57.759Z,42.77
2019-02-06T23:19:28.540Z,43.57
2019-02-06T23:21:59.082Z,45.03
2019-02-06T23:24:29.837Z,40.63
2019-02-06T23:27:00.539Z,43.37
2019-02-06T23:29:31.310Z,42.43
2019-02-06T23:32:02.109Z,44.30
2019-02-06T23:34:32.700Z,44.67
2019-02-06T23:37:03.221Z,44.40
2019-02-06T23:39:34.259Z,41.43
2019-02-06T23:42:06.222Z,45.07
2019-02-06T23:44:36.773Z,42.17
2019-02-06T23:47:07.485Z,42.20
2019-02-06T23:49:38.110Z,41.80
2019-02-06T23:52:08.822Z,41.23
2019-02-06T23:54:40.160Z,38.53
2019-02-06T23:57:10.868Z,40.10
2019-02-06T23:59:41.566Z,39.73
